Meteo Giornale » Osservazioni meteo Italia » Catania-Fontanarossa

ore: 12:20 - Osservazioni Meteo Catania-Fontanarossa
Lat. 37° 28' N Lon. 15° 3' E Alt. 11 metri s.l.m.

poco_nuvoloso Europe/Rome

20 °C

Poco Nuvoloso

Temp. 24 Ore

10 °C

20 °C

Est/Sud-Est

11.1 Km/h

Dew point 9 °C

Umidità 49 %

Visibilità  10 Km

Il sole sorge alle ore 06:43

Il sole tramonta alle ore 16:47

Data e Ora Cielo e Fenomeni T °C DP °C Um. % Pres. hPa Vis. km Vento km/h
Oggi h: 12:20 poco_nuvoloso Poco Nuvoloso 20 9 49 1018 10 E/SE 11.1
Oggi h: 11:50 nuvoloso Nuvoloso 19 9 52 1018 10 E 18.5
Oggi h: 11:20 nuvoloso Nuvoloso 19 9 52 1018 10 E/SE 16.7
Oggi h: 10:50 nuvoloso Nuvoloso 20 10 52 1018 10 N 5.5
Oggi h: 10:20 poco_nuvoloso Poco Nuvoloso 19 10 55 1018 10 O 9.3
Oggi h: 09:50 sereno Sereno 18 10 59 1018 10 O 13
Oggi h: 09:20 sereno Sereno 17 10 63 1017 10 O 14.8
Oggi h: 08:50 sereno Sereno 16 10 67 1017 10 O 13
Oggi h: 07:50 sereno Sereno 12 8 76 1016 10 S/SO 14.8
Oggi h: 07:20 sereno Sereno 10 8 87 1016 10 O/SO 11.1
Oggi h: 06:50 sereno Sereno 10 7 81 1016 10 O/SO 16.7
Oggi h: 05:50 sereno Sereno 10 7 81 1015 10 SO 13
Oggi h: 05:20 sereno Sereno 10 7 81 1015 10 O 13
Oggi h: 04:50 sereno Sereno 10 7 81 1015 10 O 9.3
Oggi h: 03:50 sereno Sereno 10 8 87 1014 10 SO 14.8
Oggi h: 03:20 sereno Sereno 11 8 81 1014 10 O 18.5
Oggi h: 02:50 sereno Sereno 10 8 87 1015 10 O/NO 14.8
Oggi h: 02:20 sereno Sereno 10 8 87 1015 10 O/NO 14.8
Oggi h: 01:50 sereno Sereno 10 8 87 1015 10 O 14.8
Oggi h: 01:20 sereno Sereno 11 8 81 1015 10 O 18.5
Oggi h: 00:50 sereno Sereno 12 8 76 1015 10 O 20.3
Oggi h: 00:20 sereno Sereno 10 7 81 1015 10 N 3.7
Ieri h: 23:50 sereno Sereno 11 8 81 1015 10 N 5.5
Ieri h: 23:20 sereno Sereno 11 8 81 1015 10 N 5.5
Ieri h: 22:50 sereno Sereno 11 8 81 1015 10 O 14.8
Ieri h: 22:20 sereno Sereno 11 8 81 1015 10 O/SO 16.7
Ieri h: 21:50 sereno Sereno 12 8 76 1015 10 O 20.3
Ieri h: 21:20 sereno Sereno 11 8 81 1015 10 O 18.5
Ieri h: 20:50 sereno Sereno 12 8 76 1015 10 SO 16.7
Ieri h: 20:20 sereno Sereno 13 7 66 1014 10 O/SO 13
Ieri h: 19:50 sereno Sereno 13 7 66 1014 10 O 18.5
Ieri h: 19:20 sereno Sereno 13 6 62 1014 10 O 14.8
Ieri h: 18:50 sereno Sereno 14 6 58 1014 10 O 18.5
Ieri h: 18:20 sereno Sereno 15 5 51 1014 10 O 16.7
Ieri h: 17:50 poco_nuvoloso Poco Nuvoloso 16 4 44 1013 10 O 18.5
Ieri h: 16:50 poco_nuvoloso Poco Nuvoloso 17 3 39 1013 10 O/NO 24
Ieri h: 16:20 poco_nuvoloso Poco Nuvoloso 18 4 39 1013 10 O/NO 22.2
Ieri h: 15:50 poco_nuvoloso Poco Nuvoloso 19 7 45 1013 10 O/NO 16.7
Ieri h: 15:20 poco_nuvoloso Poco Nuvoloso 19 10 55 1013 10 NE 7.4
Ieri h: 14:50 poco_nuvoloso Poco Nuvoloso 20 7 42 1013 10 N/NO 20.3
Ieri h: 14:20 poco_nuvoloso Poco Nuvoloso 19 8 48 1013 10 N 14.8
Ieri h: 13:50 nuvoloso Nuvoloso 20 10 52 1013 10 O/NO 29.6
Ieri h: 13:20 nuvoloso Nuvoloso 19 10 55 1013 10 O 31.5
Ieri h: 12:50 poco_nuvoloso Poco Nuvoloso 19 10 55 1013 10 O 29.6
Ieri h: 12:20 poco_nuvoloso Poco Nuvoloso 20 10 52 1014 10 O 29.6
Ieri h: 11:50 poco_nuvoloso Poco Nuvoloso 20 9 49 1014 10 NO 14.8